Cape Town, South Africa

6:10 PM SAST on October 22, 2014 (GMT +0200)
St Duma, Kuilsriver | Change Station
CLOSE
Current Station
Personal Weather Station
Location: Cape Town, WESTERN CAPE
Elevation: 236 ft
Nearby Weather Stations

Elev 236 ft 33.94 °S, 18.69 °E | Updated 28 seconds ago

Clear
Clear
68.9 °F
Feels Like 68.9 °F
N
4.6
Wind Variable Wind from SSE
Gusts 9.2 mph

Today
High -- | Low -- °F
--% Chance of Precip.
Yesterday
High -- | Low -- °F
Precip. -- in
5:55 AM 7:04 PM
Waning Crescent, 2% visible
Pressure 29.95 in
Visibility -9999.0 miles
Clouds
Dew Point 61 °F
Humidity 76%
Rainfall 0.00 in
Snow Depth Not available.
UV 0.0 out of 12
Pollen Not available.
Air Quality Not available.
Flu Activity Not available.
METAR FACT 221600Z 14007KT CAVOK 19/14 Q1014 NOSIG

More Conditions Fewer Conditions

Pressure 29.95 in
Visibility -9999.0 miles
Clouds
Dew Point 61 °F
Humidity 76%
Rainfall 0.00 in
Snow Depth Not available.
UV 0.0 out of 12
Pollen Not available.
Air Quality Not available.
Flu Activity Not available.
METAR FACT 221600Z 14007KT CAVOK 19/14 Q1014 NOSIG

More Conditions Fewer Conditions

10-Day Weather Forecast

Almanac

Astronomy

Oct. 22, 2014 Rise Set
Actual Time 5:55 AM SAST 7:04 PM SAST
Civil Twilight 5:29 AM SAST 7:30 PM SAST
Nautical Twilight 4:59 AM SAST 8:01 PM SAST
Astronomical Twilight 4:27 AM SAST 8:33 PM SAST
Moon 5:01 AM SAST 5:51 PM SAST
Length of Visible Light 14h 00m
Length of Day
13h 08m
Tomorrow will be 2m 0s longer.
Waning Crescent, 2% of the Moon is Illuminated
Today
Waning Crescent
Oct 23
New
Oct 30
First Quarter
Nov 6
Full
Nov 14
Last Quarter

Today's Extremes

Country Highs Country Lows

Community

WunderPhotos

Upload Photos

1,763,955 photos uploaded!

Nearby

Snow Depth

Not available.

Earthquake Activity

City Distance Mag. Time & Date
No recent earthquake activity has been reported nearby.
Minimum magnitude displayed is 2.5.

Coastal Water Temperatures

Place Temperature
No Stations Reporting

Nearby Weather Stations